createdAt,value
2019-03-22T00:01:48.798Z,49.17
2019-03-22T00:04:37.131Z,48.88
2019-03-22T00:07:25.042Z,49.27
2019-03-22T00:10:13.446Z,49.82
2019-03-22T00:13:02.053Z,49.25
2019-03-22T00:15:50.483Z,49.58
2019-03-22T00:18:38.839Z,49.94
2019-03-22T00:21:27.356Z,50.35
2019-03-22T00:24:15.671Z,50.13
2019-03-22T00:27:15.679Z,50.06
2019-03-22T00:29:54.710Z,50.34
2019-03-22T00:32:42.820Z,50.27
2019-03-22T00:35:30.659Z,50.53
2019-03-22T00:38:19.087Z,50.65
2019-03-22T00:41:07.221Z,50.79
2019-03-22T00:43:55.462Z,51.04
2019-03-22T00:46:43.356Z,51.18
2019-03-22T00:49:31.632Z,51.44
2019-03-22T00:52:19.652Z,51.93
2019-03-22T00:55:07.644Z,52.77
2019-03-22T00:57:55.819Z,53.14
2019-03-22T01:00:44.339Z,53.35
2019-03-22T01:03:32.347Z,53.49
2019-03-22T01:06:21.255Z,53.55
2019-03-22T01:09:09.723Z,53.66
2019-03-22T01:11:57.941Z,53.77
2019-03-22T01:14:46.193Z,54.24
2019-03-22T01:17:34.545Z,54.45
2019-03-22T01:20:22.686Z,55.00
2019-03-22T01:23:11.765Z,54.35
2019-03-22T01:26:00.554Z,54.34
2019-03-22T01:28:48.868Z,54.05
2019-03-22T01:31:38.308Z,54.52
2019-03-22T01:34:26.733Z,54.48
2019-03-22T01:37:15.131Z,54.62
2019-03-22T01:40:03.458Z,54.48
2019-03-22T01:42:51.516Z,54.65
2019-03-22T01:45:39.820Z,55.33
2019-03-22T01:48:28.054Z,55.69
2019-03-22T01:51:16.041Z,56.59
2019-03-22T01:54:04.345Z,56.08
2019-03-22T01:56:53.136Z,55.91
2019-03-22T01:59:41.162Z,55.99
2019-03-22T02:02:29.862Z,56.40
2019-03-22T02:05:18.215Z,56.90
2019-03-22T02:08:06.537Z,56.59
2019-03-22T02:10:55.006Z,56.19
2019-03-22T02:13:43.229Z,55.37
2019-03-22T02:16:31.904Z,54.79
2019-03-22T02:19:20.206Z,54.40
2019-03-22T02:22:09.265Z,54.86
2019-03-22T02:24:57.197Z,55.92
2019-03-22T02:27:45.484Z,56.22
2019-03-22T02:30:33.715Z,56.54
2019-03-22T02:33:22.385Z,57.19
2019-03-22T02:36:10.896Z,57.28
2019-03-22T02:42:59.004Z,57.46
2019-03-22T02:45:46.891Z,56.85
2019-03-22T02:48:35.447Z,57.09
2019-03-22T02:51:23.964Z,57.15
2019-03-22T02:54:12.487Z,57.29
2019-03-22T02:57:01.101Z,57.15
2019-03-22T02:59:49.226Z,57.11
2019-03-22T03:02:37.483Z,57.58
2019-03-22T03:05:25.739Z,57.40
2019-03-22T03:08:14.342Z,57.00
2019-03-22T03:11:02.323Z,56.37
2019-03-22T03:13:50.900Z,56.75
2019-03-22T03:16:38.773Z,56.95
2019-03-22T03:19:27.073Z,56.98
2019-03-22T03:22:15.142Z,57.68
2019-03-22T03:25:03.702Z,57.43
2019-03-22T03:27:52.236Z,56.46
2019-03-22T03:30:40.401Z,56.38
2019-03-22T03:33:28.498Z,56.47
2019-03-22T03:36:16.630Z,56.62
2019-03-22T03:39:05.433Z,57.59
2019-03-22T03:41:53.705Z,57.70
2019-03-22T03:44:42.595Z,57.30
2019-03-22T03:47:30.842Z,57.21
2019-03-22T03:50:18.754Z,57.43
2019-03-22T03:53:07.077Z,57.70
2019-03-22T03:55:55.204Z,57.78
2019-03-22T03:58:52.105Z,58.22
2019-03-22T04:01:33.623Z,58.66
2019-03-22T04:04:21.451Z,59.63
2019-03-22T04:07:09.718Z,59.53
2019-03-22T04:09:58.396Z,59.81
2019-03-22T04:12:46.623Z,59.62
2019-03-22T04:15:34.930Z,59.34
2019-03-22T04:18:23.494Z,59.43
2019-03-22T04:21:11.392Z,59.55
2019-03-22T04:23:59.785Z,59.85
2019-03-22T04:26:48.341Z,60.08
2019-03-22T04:29:36.716Z,60.26
2019-03-22T04:32:24.865Z,59.97
2019-03-22T04:35:12.929Z,58.94
2019-03-22T04:38:01.448Z,58.86
2019-03-22T04:40:49.895Z,59.48
2019-03-22T04:43:38.075Z,59.51
2019-03-22T04:46:26.931Z,59.98
2019-03-22T04:49:15.670Z,59.97
2019-03-22T04:52:04.354Z,59.74
2019-03-22T04:54:53.957Z,59.39
2019-03-22T04:57:43.442Z,59.42
2019-03-22T05:00:31.665Z,59.36
2019-03-22T05:03:21.462Z,58.99
2019-03-22T05:06:11.227Z,58.81
2019-03-22T05:09:00.299Z,58.66
2019-03-22T05:11:49.625Z,58.05
2019-03-22T05:14:40.100Z,58.52
2019-03-22T05:17:28.754Z,58.23
2019-03-22T05:20:17.569Z,58.48
2019-03-22T05:23:06.652Z,58.42
2019-03-22T05:25:55.966Z,58.53
2019-03-22T05:28:44.215Z,58.65
2019-03-22T05:32:06.570Z,59.02
2019-03-22T05:34:55.221Z,59.38
2019-03-22T05:37:43.381Z,59.96
2019-03-22T05:40:31.412Z,60.50
2019-03-22T05:43:19.858Z,60.85
2019-03-22T05:46:08.324Z,61.07
2019-03-22T05:48:56.614Z,60.90
2019-03-22T05:51:44.968Z,59.67
2019-03-22T05:54:33.546Z,59.07
2019-03-22T05:57:21.502Z,58.75
2019-03-22T06:00:10.023Z,58.40
2019-03-22T06:02:58.448Z,58.29
2019-03-22T06:05:46.776Z,57.65
2019-03-22T06:08:35.261Z,57.63
2019-03-22T06:11:23.822Z,56.03
2019-03-22T06:14:12.045Z,56.45
2019-03-22T06:17:00.369Z,55.75
2019-03-22T06:19:48.566Z,54.32
2019-03-22T06:22:37.063Z,53.84
2019-03-22T06:25:24.964Z,53.38
2019-03-22T06:28:13.619Z,52.66
2019-03-22T06:31:01.661Z,50.57
2019-03-22T06:33:49.983Z,49.97
2019-03-22T06:36:38.224Z,49.76
2019-03-22T06:39:26.369Z,49.06
2019-03-22T06:42:15.095Z,47.80
2019-03-22T06:45:03.506Z,46.86
2019-03-22T06:47:51.545Z,47.27
2019-03-22T06:50:39.967Z,47.45
2019-03-22T06:53:28.106Z,47.18
2019-03-22T06:56:16.707Z,46.24
2019-03-22T06:59:05.001Z,44.85
2019-03-22T07:01:53.470Z,43.14
2019-03-22T07:04:41.693Z,42.23
2019-03-22T07:07:29.555Z,41.68
2019-03-22T07:10:17.576Z,40.06
2019-03-22T07:13:05.876Z,40.51
2019-03-22T07:15:54.505Z,40.48
2019-03-22T07:18:43.183Z,40.19
2019-03-22T07:21:31.533Z,39.34
2019-03-22T07:24:20.577Z,39.02
2019-03-22T07:27:09.014Z,38.66
2019-03-22T07:29:57.785Z,38.08
2019-03-22T07:32:46.375Z,37.95
2019-03-22T07:35:34.948Z,38.02
2019-03-22T07:38:22.903Z,37.61
2019-03-22T07:41:11.353Z,38.32
2019-03-22T07:43:59.790Z,37.46
2019-03-22T07:46:48.317Z,37.20
2019-03-22T07:49:36.573Z,36.16
2019-03-22T07:52:25.057Z,36.76
2019-03-22T07:55:13.773Z,37.21
2019-03-22T07:58:02.174Z,37.26
2019-03-22T08:00:50.441Z,37.41
2019-03-22T08:03:38.795Z,37.07
2019-03-22T08:06:26.851Z,36.32
2019-03-22T08:09:15.436Z,36.10
2019-03-22T08:12:03.917Z,36.23
2019-03-22T08:14:52.347Z,36.13
2019-03-22T08:17:40.895Z,35.65
2019-03-22T08:20:29.336Z,37.14
2019-03-22T08:23:24.863Z,36.24
2019-03-22T08:26:12.709Z,37.10
2019-03-22T08:29:01.017Z,37.10
2019-03-22T08:31:49.750Z,36.49
2019-03-22T08:34:37.964Z,38.13
2019-03-22T08:37:26.336Z,37.28
2019-03-22T08:40:14.615Z,37.42
2019-03-22T08:43:03.118Z,38.02
2019-03-22T08:45:51.604Z,37.62
2019-03-22T08:48:40.403Z,37.82
2019-03-22T08:51:29.862Z,37.41
2019-03-22T08:54:18.578Z,37.70
2019-03-22T08:57:06.481Z,38.68
2019-03-22T08:59:54.456Z,37.97
2019-03-22T09:02:42.974Z,38.31
2019-03-22T09:05:31.437Z,38.11
2019-03-22T09:08:20.252Z,38.17
2019-03-22T09:11:08.378Z,39.30
2019-03-22T09:13:56.651Z,39.87
2019-03-22T09:16:44.950Z,39.96
2019-03-22T09:19:33.310Z,40.67
2019-03-22T09:22:21.667Z,40.08
2019-03-22T09:25:10.208Z,40.15
2019-03-22T09:27:58.922Z,40.33
2019-03-22T09:30:47.458Z,40.16
2019-03-22T09:33:35.499Z,40.00
2019-03-22T09:36:24.111Z,40.42
2019-03-22T09:39:12.690Z,39.19
2019-03-22T09:42:00.952Z,40.47
2019-03-22T09:44:49.719Z,39.50
2019-03-22T09:47:38.401Z,39.61
2019-03-22T09:50:26.597Z,38.98
2019-03-22T09:53:14.993Z,39.22
2019-03-22T09:56:03.533Z,39.95
2019-03-22T09:58:51.877Z,40.44
2019-03-22T10:01:40.114Z,38.78
2019-03-22T10:04:28.580Z,38.46
2019-03-22T10:07:16.999Z,38.95
2019-03-22T10:10:06.054Z,37.85
2019-03-22T10:12:54.769Z,38.04
2019-03-22T10:15:43.160Z,38.63
2019-03-22T10:18:31.535Z,38.28
2019-03-22T10:21:22.786Z,38.03
2019-03-22T10:24:10.052Z,37.32
2019-03-22T10:26:58.518Z,37.09
2019-03-22T10:29:46.830Z,37.50
2019-03-22T10:32:35.195Z,37.01
2019-03-22T10:35:26.329Z,37.19
2019-03-22T10:38:16.514Z,37.31
2019-03-22T10:41:03.777Z,37.83
2019-03-22T10:43:52.040Z,36.95
2019-03-22T10:46:40.656Z,37.19
2019-03-22T10:49:28.748Z,36.23
2019-03-22T10:52:18.076Z,36.93
2019-03-22T10:55:23.210Z,35.90
2019-03-22T10:57:56.439Z,36.55
2019-03-22T11:00:44.907Z,36.56
2019-03-22T11:03:33.290Z,37.24
2019-03-22T11:06:26.122Z,36.10
2019-03-22T11:09:11.207Z,36.74
2019-03-22T11:11:59.757Z,36.37
2019-03-22T11:14:48.106Z,36.51
2019-03-22T11:17:36.311Z,35.60
2019-03-22T11:20:24.651Z,36.75
2019-03-22T11:23:12.960Z,36.88
2019-03-22T11:26:04.361Z,36.02
2019-03-22T11:28:52.120Z,36.11
2019-03-22T11:31:40.476Z,34.58
2019-03-22T11:34:28.848Z,35.05
2019-03-22T11:37:17.116Z,35.11
2019-03-22T11:40:07.548Z,35.15
2019-03-22T11:42:55.840Z,34.78
2019-03-22T11:45:43.683Z,34.72
2019-03-22T11:48:32.124Z,35.17
2019-03-22T11:51:20.655Z,34.56
2019-03-22T11:54:08.863Z,34.51
2019-03-22T11:56:56.757Z,34.38
2019-03-22T11:59:45.282Z,33.92
2019-03-22T12:02:33.589Z,34.37
2019-03-22T12:05:22.001Z,34.83
2019-03-22T12:08:09.918Z,33.85
2019-03-22T12:10:58.502Z,34.24
2019-03-22T12:13:46.905Z,33.93
2019-03-22T12:16:34.851Z,33.36
2019-03-22T12:19:23.052Z,33.91
2019-03-22T12:22:11.558Z,31.60
2019-03-22T12:24:59.997Z,31.99
2019-03-22T12:27:48.755Z,31.80
2019-03-22T12:30:36.902Z,32.72
2019-03-22T12:33:24.944Z,31.42
2019-03-22T12:36:13.637Z,32.07
2019-03-22T12:39:02.340Z,31.06
2019-03-22T12:41:50.193Z,31.51
2019-03-22T12:44:38.798Z,31.22
2019-03-22T12:47:27.424Z,30.77
2019-03-22T12:50:15.703Z,30.76
2019-03-22T12:53:04.040Z,30.84
2019-03-22T12:55:52.720Z,30.24
2019-03-22T12:58:40.915Z,31.16
2019-03-22T13:01:29.216Z,30.88
2019-03-22T13:04:17.183Z,30.59
2019-03-22T13:07:05.628Z,30.85
2019-03-22T13:09:54.245Z,30.16
2019-03-22T13:12:42.869Z,29.85
2019-03-22T13:15:30.943Z,30.58
2019-03-22T13:18:19.239Z,29.90
2019-03-22T13:21:07.356Z,29.67
2019-03-22T13:23:55.534Z,30.55
2019-03-22T13:26:43.719Z,30.24
2019-03-22T13:29:32.310Z,30.18
2019-03-22T13:32:20.312Z,29.97
2019-03-22T13:35:08.951Z,28.76
2019-03-22T13:37:57.139Z,29.44
2019-03-22T13:40:45.498Z,29.36
2019-03-22T13:43:34.004Z,29.44
2019-03-22T13:46:22.826Z,27.97
2019-03-22T13:49:10.976Z,28.79
2019-03-22T13:51:59.540Z,29.47
2019-03-22T13:54:48.008Z,29.02
2019-03-22T13:57:36.549Z,29.56
2019-03-22T14:00:24.378Z,28.48
2019-03-22T14:03:12.233Z,26.62
2019-03-22T14:06:00.587Z,27.64
2019-03-22T14:08:49.217Z,28.47
2019-03-22T14:11:37.643Z,28.17
2019-03-22T14:14:25.557Z,28.28
2019-03-22T14:17:13.893Z,29.13
2019-03-22T14:20:10.974Z,28.98
2019-03-22T14:22:53.887Z,28.90
2019-03-22T14:25:42.285Z,29.01
2019-03-22T14:28:30.424Z,29.01
2019-03-22T14:31:18.547Z,29.10
2019-03-22T14:34:07.019Z,28.54
2019-03-22T14:36:54.956Z,29.17
2019-03-22T14:39:43.102Z,29.06
2019-03-22T14:42:31.598Z,29.49
2019-03-22T14:45:20.237Z,28.58
2019-03-22T14:48:08.745Z,29.45
2019-03-22T14:50:57.009Z,29.49
2019-03-22T14:53:46.476Z,29.85
2019-03-22T14:56:34.857Z,29.49
2019-03-22T14:59:23.507Z,29.80
2019-03-22T15:02:11.664Z,30.43
2019-03-22T15:04:59.760Z,30.33
2019-03-22T15:07:47.633Z,30.00
2019-03-22T15:10:35.637Z,30.21
2019-03-22T15:13:42.656Z,29.69
2019-03-22T15:16:50.116Z,30.27
2019-03-22T15:19:57.686Z,30.29
2019-03-22T15:23:03.458Z,29.78
2019-03-22T15:26:09.361Z,29.37
2019-03-22T15:29:21.121Z,29.35
2019-03-22T15:32:17.773Z,29.08
2019-03-22T15:35:23.748Z,29.77
2019-03-22T15:38:29.704Z,29.40
2019-03-22T15:41:17.920Z,29.61
2019-03-22T15:44:06.647Z,29.23
2019-03-22T15:46:55.402Z,29.11
2019-03-22T15:49:43.996Z,29.14
2019-03-22T15:52:32.879Z,29.28
2019-03-22T15:55:21.301Z,29.30
2019-03-22T15:58:09.379Z,29.49
2019-03-22T16:00:57.427Z,29.14
2019-03-22T16:03:45.666Z,28.82
2019-03-22T16:06:34.796Z,28.93
2019-03-22T16:09:22.880Z,28.64
2019-03-22T16:12:10.819Z,28.75
2019-03-22T16:14:59.381Z,28.66
2019-03-22T16:17:47.730Z,28.86
2019-03-22T16:20:36.664Z,29.12
2019-03-22T16:23:24.990Z,29.45
2019-03-22T16:26:13.450Z,29.75
2019-03-22T16:29:01.389Z,29.82
2019-03-22T16:31:49.809Z,29.90
2019-03-22T16:34:38.120Z,30.03
2019-03-22T16:37:26.550Z,29.78
2019-03-22T16:40:23.843Z,29.57
2019-03-22T16:43:04.599Z,30.33
2019-03-22T16:45:52.947Z,29.87
2019-03-22T16:48:42.971Z,30.63
2019-03-22T16:51:31.155Z,30.56
2019-03-22T16:54:19.323Z,30.98
2019-03-22T16:57:07.245Z,30.59
2019-03-22T16:59:55.218Z,30.62
2019-03-22T17:02:43.516Z,31.07
2019-03-22T17:05:31.991Z,31.13
2019-03-22T17:08:19.830Z,31.43
2019-03-22T17:11:07.804Z,31.81
2019-03-22T17:13:55.987Z,31.89
2019-03-22T17:16:44.256Z,31.53
2019-03-22T17:19:32.738Z,31.70
2019-03-22T17:22:21.137Z,31.95
2019-03-22T17:25:09.490Z,32.07
2019-03-22T17:27:58.029Z,32.29
2019-03-22T17:30:46.252Z,32.52
2019-03-22T17:33:34.413Z,33.16
2019-03-22T17:36:22.658Z,33.85
2019-03-22T17:39:10.687Z,34.19
2019-03-22T17:41:59.152Z,34.53
2019-03-22T17:44:47.292Z,34.59
2019-03-22T17:47:35.562Z,34.23
2019-03-22T17:50:24.078Z,34.29
2019-03-22T17:53:12.644Z,34.38
2019-03-22T17:56:01.078Z,34.53
2019-03-22T17:58:49.338Z,34.70
2019-03-22T18:01:37.854Z,35.03
2019-03-22T18:04:26.292Z,35.26
2019-03-22T18:07:14.479Z,35.53
2019-03-22T18:10:02.823Z,35.67
2019-03-22T18:12:51.529Z,35.74
2019-03-22T18:15:40.318Z,36.13
2019-03-22T18:18:28.884Z,35.82
2019-03-22T18:21:17.218Z,35.84
2019-03-22T18:24:05.852Z,35.74
2019-03-22T18:26:54.789Z,36.62
2019-03-22T18:29:42.976Z,36.93
2019-03-22T18:32:31.336Z,36.69
2019-03-22T18:35:19.312Z,37.45
2019-03-22T18:38:08.035Z,37.58
2019-03-22T18:40:56.508Z,37.52
2019-03-22T18:43:44.918Z,37.72
2019-03-22T18:46:33.185Z,37.82
2019-03-22T18:49:22.165Z,37.82
2019-03-22T18:52:10.135Z,38.04
2019-03-22T18:54:58.351Z,37.71
2019-03-22T18:57:46.716Z,37.94
2019-03-22T19:00:34.629Z,37.98
2019-03-22T19:03:24.416Z,37.51
2019-03-22T19:06:12.442Z,37.71
2019-03-22T19:09:00.711Z,38.40
2019-03-22T19:11:48.919Z,38.38
2019-03-22T19:14:37.392Z,37.95
2019-03-22T19:17:25.729Z,38.00
2019-03-22T19:20:14.643Z,37.88
2019-03-22T19:23:03.144Z,37.98
2019-03-22T19:25:51.100Z,38.32
2019-03-22T19:28:40.026Z,38.59
2019-03-22T19:31:28.272Z,38.84
2019-03-22T19:34:16.429Z,39.05
2019-03-22T19:37:04.313Z,39.22
2019-03-22T19:39:52.823Z,39.14
2019-03-22T19:42:41.666Z,39.02
2019-03-22T19:45:29.741Z,39.51
2019-03-22T19:48:18.037Z,39.55
2019-03-22T19:51:06.605Z,39.08
2019-03-22T19:53:54.998Z,39.41
2019-03-22T19:56:43.147Z,39.85
2019-03-22T19:59:31.712Z,39.71
2019-03-22T20:02:20.038Z,39.44
2019-03-22T20:05:08.759Z,39.54
2019-03-22T20:07:57.567Z,39.48
2019-03-22T20:10:45.685Z,39.50
2019-03-22T20:13:33.758Z,40.03
2019-03-22T20:16:22.140Z,39.74
2019-03-22T20:19:10.835Z,39.87
2019-03-22T20:21:59.524Z,40.03
2019-03-22T20:24:48.013Z,40.13
2019-03-22T20:27:36.243Z,40.23
2019-03-22T20:30:24.245Z,40.09
2019-03-22T20:33:13.006Z,40.21
2019-03-22T20:36:01.511Z,40.54
2019-03-22T20:38:51.129Z,40.64
2019-03-22T20:41:39.277Z,40.60
2019-03-22T20:44:33.903Z,40.80
2019-03-22T20:47:18.113Z,41.12
2019-03-22T20:50:06.844Z,41.20
2019-03-22T20:52:54.640Z,41.34
2019-03-22T20:55:42.887Z,41.68
2019-03-22T20:58:31.629Z,41.59
2019-03-22T21:01:20.277Z,41.53
2019-03-22T21:04:08.621Z,41.77
2019-03-22T21:06:56.526Z,41.73
2019-03-22T21:09:44.724Z,42.00
2019-03-22T21:12:32.916Z,42.12
2019-03-22T21:15:24.657Z,42.40
2019-03-22T21:18:11.116Z,42.38
2019-03-22T21:20:59.685Z,42.37
2019-03-22T21:23:47.738Z,42.36
2019-03-22T21:26:36.449Z,42.53
2019-03-22T21:29:24.617Z,42.90
2019-03-22T21:32:12.549Z,42.66
2019-03-22T21:35:00.548Z,42.42
2019-03-22T21:37:48.567Z,42.18
2019-03-22T21:40:36.929Z,42.23
2019-03-22T21:43:25.531Z,42.57
2019-03-22T21:46:14.222Z,42.52
2019-03-22T21:49:02.573Z,42.56
2019-03-22T21:51:51.252Z,42.78
2019-03-22T21:54:40.020Z,42.74
2019-03-22T21:57:28.352Z,42.68
2019-03-22T22:00:16.987Z,42.63
2019-03-22T22:03:05.478Z,42.75
2019-03-22T22:05:53.684Z,42.54
2019-03-22T22:08:41.874Z,42.52
2019-03-22T22:11:30.134Z,42.44
2019-03-22T22:14:18.370Z,42.22
2019-03-22T22:17:06.708Z,42.51
2019-03-22T22:19:54.693Z,42.45
2019-03-22T22:22:42.964Z,42.54
2019-03-22T22:25:31.273Z,42.36
2019-03-22T22:28:19.972Z,42.42
2019-03-22T22:31:08.139Z,42.61
2019-03-22T22:33:56.044Z,42.56
2019-03-22T22:36:44.379Z,42.50
2019-03-22T22:39:32.790Z,42.60
2019-03-22T22:42:21.442Z,42.85
2019-03-22T22:45:11.476Z,43.02
2019-03-22T22:48:00.062Z,43.40
2019-03-22T22:50:48.329Z,43.80
2019-03-22T22:53:36.216Z,43.79
2019-03-22T22:56:24.846Z,43.76
2019-03-22T22:59:13.455Z,43.69
2019-03-22T23:02:01.952Z,43.66
2019-03-22T23:04:50.129Z,43.73
2019-03-22T23:07:38.206Z,43.91
2019-03-22T23:10:26.455Z,43.55
2019-03-22T23:13:14.453Z,43.79
2019-03-22T23:16:02.646Z,43.81
2019-03-22T23:18:51.106Z,44.08
2019-03-22T23:21:40.125Z,44.08
2019-03-22T23:24:28.342Z,43.57
2019-03-22T23:27:16.868Z,43.79
2019-03-22T23:30:05.676Z,43.61
2019-03-22T23:32:54.320Z,43.46
2019-03-22T23:35:42.839Z,43.35
2019-03-22T23:38:31.059Z,43.30
2019-03-22T23:41:19.140Z,43.54
2019-03-22T23:44:07.893Z,43.50
2019-03-22T23:46:56.419Z,43.27
2019-03-22T23:49:44.342Z,43.92
2019-03-22T23:52:32.616Z,43.88
2019-03-22T23:55:20.628Z,43.94
2019-03-22T23:58:08.908Z,44.72
